createdAt,value
2019-05-15T00:00:08.928Z,96170.63
2019-05-15T00:01:13.184Z,96172.58
2019-05-15T00:02:18.407Z,96168.37
2019-05-15T00:03:22.835Z,96165.11
2019-05-15T00:04:28.115Z,96165.11
2019-05-15T00:05:32.091Z,96169.10
2019-05-15T00:06:35.513Z,96164.73
2019-05-15T00:07:39.635Z,96167.83
2019-05-15T00:08:43.028Z,96161.16
2019-05-15T00:09:49.001Z,96161.16
2019-05-15T00:10:52.163Z,96159.43
2019-05-15T00:11:56.218Z,96158.66
2019-05-15T00:12:59.681Z,96158.38
2019-05-15T00:14:03.819Z,96156.47
2019-05-15T00:15:09.388Z,96156.47
2019-05-15T00:16:13.183Z,96156.34
2019-05-15T00:17:18.998Z,96153.84
2019-05-15T00:18:22.396Z,96149.66
2019-05-15T00:19:25.824Z,96153.72
2019-05-15T00:20:29.813Z,96151.77
2019-05-15T00:21:33.248Z,96149.85
2019-05-15T00:22:38.845Z,96151.09
2019-05-15T00:23:42.687Z,96146.34
2019-05-15T00:24:48.660Z,96149.02
2019-05-15T00:25:51.980Z,96150.23
2019-05-15T00:26:55.962Z,96143.97
2019-05-15T00:27:59.418Z,96142.17
2019-05-15T00:29:12.893Z,96146.16
2019-05-15T00:30:09.595Z,96138.58
2019-05-15T00:31:13.638Z,96141.05
2019-05-15T00:32:18.623Z,96141.77
2019-05-15T00:33:22.736Z,96137.74
2019-05-15T00:34:28.456Z,96137.74
2019-05-15T00:35:31.867Z,96139.06
2019-05-15T00:36:35.296Z,96139.06
2019-05-15T00:37:39.279Z,96139.31
2019-05-15T00:38:42.772Z,96140.21
2019-05-15T00:39:48.589Z,96140.47
2019-05-15T00:40:51.972Z,96135.30
2019-05-15T00:41:55.955Z,96135.27
2019-05-15T00:42:59.389Z,96135.27
2019-05-15T00:44:03.477Z,96136.92
2019-05-15T00:45:09.515Z,96132.23
2019-05-15T00:46:13.681Z,96133.19
2019-05-15T00:47:18.135Z,96133.67
2019-05-15T00:48:22.377Z,96124.86
2019-05-15T00:49:25.810Z,96127.06
2019-05-15T00:50:29.802Z,96125.48
2019-05-15T00:51:33.393Z,96120.32
2019-05-15T00:52:39.085Z,96123.74
2019-05-15T00:53:42.837Z,96123.74
2019-05-15T00:54:48.399Z,96126.64
2019-05-15T00:55:52.066Z,96122.72
2019-05-15T00:56:57.967Z,96117.11
2019-05-15T00:58:01.431Z,96130.48
2019-05-15T00:59:05.512Z,96124.20
2019-05-15T01:00:09.687Z,96118.77
2019-05-15T01:01:13.675Z,96118.77
2019-05-15T01:02:17.859Z,96109.87
2019-05-15T01:03:21.871Z,96112.03
2019-05-15T01:04:25.316Z,96111.97
2019-05-15T01:05:29.300Z,96111.97
2019-05-15T01:06:32.737Z,96111.75
2019-05-15T01:07:39.212Z,96108.98
2019-05-15T01:08:42.163Z,96106.77
2019-05-15T01:09:48.557Z,96106.77
2019-05-15T01:10:51.354Z,96104.03
2019-05-15T01:11:55.419Z,96104.86
2019-05-15T01:12:58.851Z,96103.26
2019-05-15T01:14:02.975Z,96099.84
2019-05-15T01:15:09.258Z,96105.87
2019-05-15T01:16:13.537Z,96101.41
2019-05-15T01:17:18.470Z,96104.09
2019-05-15T01:18:22.495Z,96097.05
2019-05-15T01:19:25.955Z,96097.27
2019-05-15T01:20:30.454Z,96096.63
2019-05-15T01:21:33.890Z,96097.17
2019-05-15T01:22:39.387Z,96094.97
2019-05-15T01:23:43.130Z,96089.26
2019-05-15T01:24:48.550Z,96089.55
2019-05-15T01:25:52.116Z,96095.67
2019-05-15T01:26:58.382Z,96094.30
2019-05-15T01:28:01.333Z,96092.98
2019-05-15T01:29:05.407Z,96093.34
2019-05-15T01:30:09.381Z,96092.92
2019-05-15T01:31:13.399Z,96089.67
2019-05-15T01:32:18.949Z,96092.86
2019-05-15T01:33:22.545Z,96090.37
2019-05-15T01:34:26.001Z,96093.41
2019-05-15T01:35:29.993Z,96088.42
2019-05-15T01:36:33.429Z,96090.56
2019-05-15T01:37:38.990Z,96082.39
2019-05-15T01:38:42.800Z,96085.62
2019-05-15T01:39:48.553Z,96080.09
2019-05-15T01:40:52.190Z,96081.89
2019-05-15T01:41:58.420Z,96079.23
2019-05-15T01:43:01.357Z,96079.23
2019-05-15T01:44:05.501Z,96076.66
2019-05-15T01:45:09.129Z,96076.66
2019-05-15T01:46:13.110Z,96071.16
2019-05-15T01:47:18.778Z,96079.62
2019-05-15T01:48:22.240Z,96077.00
2019-05-15T01:49:27.909Z,96072.19
2019-05-15T01:50:31.480Z,96075.09
2019-05-15T01:51:34.912Z,96072.73
2019-05-15T01:52:39.322Z,96073.63
2019-05-15T01:53:42.866Z,96069.95
2019-05-15T01:54:48.882Z,96071.61
2019-05-15T01:55:52.045Z,96071.61
2019-05-15T01:56:58.572Z,96065.91
2019-05-15T01:58:01.195Z,96060.58
2019-05-15T01:59:05.317Z,96061.88
2019-05-15T02:00:09.680Z,96063.67
2019-05-15T02:01:13.677Z,96055.34
2019-05-15T02:02:18.737Z,96051.55
2019-05-15T02:03:22.929Z,96063.19
2019-05-15T02:04:28.814Z,96053.87
2019-05-15T02:05:32.237Z,96053.87
2019-05-15T02:06:35.744Z,96055.70
2019-05-15T02:07:39.808Z,96056.94
2019-05-15T02:08:43.245Z,96055.38
2019-05-15T02:09:49.231Z,96055.88
2019-05-15T02:10:52.485Z,96059.47
2019-05-15T02:11:58.164Z,96059.47
2019-05-15T02:13:01.674Z,96051.40
2019-05-15T02:14:08.092Z,96054.56
2019-05-15T02:15:11.499Z,96054.56
2019-05-15T02:16:15.855Z,96053.47
2019-05-15T02:17:19.288Z,96047.20
2019-05-15T02:18:23.297Z,96047.48
2019-05-15T02:19:28.604Z,96050.98
2019-05-15T02:20:32.420Z,96051.40
2019-05-15T02:21:37.869Z,96051.48
2019-05-15T02:22:42.662Z,96045.01
2019-05-15T02:23:48.028Z,96048.04
2019-05-15T02:24:51.832Z,96048.04
2019-05-15T02:25:55.366Z,96046.73
2019-05-15T02:26:59.353Z,96048.25
2019-05-15T02:28:02.852Z,96048.25
2019-05-15T02:29:07.775Z,96045.42
2019-05-15T02:30:21.383Z,96037.51
2019-05-15T02:31:19.667Z,96037.51
2019-05-15T02:32:23.256Z,96044.74
2019-05-15T02:33:30.075Z,96039.14
2019-05-15T02:34:32.380Z,96033.50
2019-05-15T02:35:39.217Z,96036.53
2019-05-15T02:36:41.657Z,96033.16
2019-05-15T02:37:48.748Z,96033.16
2019-05-15T02:38:50.749Z,96038.31
2019-05-15T02:39:54.736Z,96027.16
2019-05-15T02:40:59.201Z,96028.48
2019-05-15T02:42:03.562Z,96027.19
2019-05-15T02:43:10.066Z,96027.19
2019-05-15T02:44:12.696Z,96028.02
2019-05-15T02:45:19.276Z,96030.09
2019-05-15T02:46:21.758Z,96025.81
2019-05-15T02:47:25.191Z,96025.81
2019-05-15T02:48:29.325Z,96027.88
2019-05-15T02:49:32.740Z,96029.61
2019-05-15T02:50:39.103Z,96028.14
2019-05-15T02:51:41.897Z,96026.98
2019-05-15T02:52:46.753Z,96020.70
2019-05-15T02:53:51.073Z,96023.58
2019-05-15T02:54:55.041Z,96024.34
2019-05-15T02:56:00.104Z,96025.27
2019-05-15T02:57:04.450Z,96027.12
2019-05-15T02:58:09.943Z,96026.03
2019-05-15T02:59:13.661Z,96021.47
2019-05-15T03:00:35.911Z,96026.58
2019-05-15T03:01:23.418Z,96017.58
2019-05-15T03:02:28.668Z,96022.27
2019-05-15T03:03:32.863Z,96022.33
2019-05-15T03:04:39.785Z,96017.39
2019-05-15T03:05:42.066Z,96018.77
2019-05-15T03:06:45.514Z,96017.33
2019-05-15T03:07:49.602Z,96014.05
2019-05-15T03:08:53.124Z,96018.29
2019-05-15T03:09:59.952Z,96015.13
2019-05-15T03:11:02.483Z,96016.88
2019-05-15T03:12:09.070Z,96013.44
2019-05-15T03:13:11.918Z,96015.69
2019-05-15T03:14:15.982Z,96013.91
2019-05-15T03:15:19.612Z,96009.58
2019-05-15T03:16:23.652Z,96014.92
2019-05-15T03:17:29.712Z,96013.24
2019-05-15T03:18:32.927Z,96013.59
2019-05-15T03:19:39.175Z,96009.32
2019-05-15T03:20:42.241Z,96011.40
2019-05-15T03:21:45.762Z,96008.63
2019-05-15T03:22:49.890Z,96012.35
2019-05-15T03:23:53.395Z,96016.05
2019-05-15T03:24:59.277Z,96010.82
2019-05-15T03:26:04.292Z,96012.25
2019-05-15T03:27:09.261Z,96010.41
2019-05-15T03:28:12.826Z,96011.59
2019-05-15T03:29:16.948Z,96009.48
2019-05-15T03:30:22.107Z,96012.29
2019-05-15T03:31:43.470Z,96009.84
2019-05-15T03:32:42.057Z,96010.03
2019-05-15T03:33:44.828Z,96002.53
2019-05-15T03:34:47.457Z,96002.53
2019-05-15T03:35:53.594Z,96008.94
2019-05-15T03:37:03.637Z,96006.52
2019-05-15T03:38:09.296Z,96004.06
2019-05-15T03:39:12.291Z,96007.22
2019-05-15T03:40:19.341Z,96004.61
2019-05-15T03:41:21.828Z,96005.17
2019-05-15T03:42:25.903Z,96009.55
2019-05-15T03:43:29.507Z,96006.52
2019-05-15T03:44:33.486Z,96009.10
2019-05-15T03:45:40.482Z,96007.73
2019-05-15T03:46:42.834Z,96006.96
2019-05-15T03:47:49.114Z,96010.41
2019-05-15T03:48:52.066Z,96000.90
2019-05-15T03:49:55.630Z,96008.20
2019-05-15T03:50:59.950Z,96010.88
2019-05-15T03:52:03.369Z,96011.05
2019-05-15T03:53:10.239Z,96009.13
2019-05-15T03:54:12.882Z,96010.38
2019-05-15T03:55:18.698Z,96005.50
2019-05-15T03:56:22.273Z,96011.52
2019-05-15T03:57:26.344Z,96003.68
2019-05-15T03:58:29.780Z,96005.81
2019-05-15T03:59:33.904Z,96008.78
2019-05-15T04:00:39.522Z,96002.56
2019-05-15T04:01:44.037Z,96011.17
2019-05-15T04:02:48.838Z,96008.49
2019-05-15T04:03:52.982Z,96008.91
2019-05-15T04:04:58.069Z,96009.61
2019-05-15T04:06:02.187Z,96005.21
2019-05-15T04:07:09.016Z,96005.12
2019-05-15T04:08:11.619Z,96002.31
2019-05-15T04:09:15.238Z,96009.27
2019-05-15T04:10:20.098Z,96009.42
2019-05-15T04:11:23.560Z,96012.52
2019-05-15T04:12:29.099Z,96007.54
2019-05-15T04:13:32.637Z,96007.41
2019-05-15T04:14:39.516Z,96002.27
2019-05-15T04:15:41.784Z,96002.33
2019-05-15T04:16:45.767Z,96003.52
2019-05-15T04:17:49.565Z,96004.41
2019-05-15T04:18:53.631Z,96004.83
2019-05-15T04:19:58.878Z,95998.48
2019-05-15T04:21:02.776Z,95998.33
2019-05-15T04:22:09.067Z,95996.86
2019-05-15T04:23:14.264Z,95992.52
2019-05-15T04:24:19.087Z,95994.66
2019-05-15T04:25:23.622Z,95993.95
2019-05-15T04:26:29.638Z,95994.14
2019-05-15T04:27:35.415Z,95993.78
2019-05-15T04:28:41.996Z,95993.19
2019-05-15T04:29:49.215Z,95992.70
2019-05-15T04:30:52.187Z,95997.06
2019-05-15T04:32:02.580Z,95989.87
2019-05-15T04:33:01.393Z,95990.98
2019-05-15T04:34:08.925Z,95986.47
2019-05-15T04:35:10.865Z,95990.61
2019-05-15T04:36:14.863Z,95991.53
2019-05-15T04:37:19.056Z,95983.50
2019-05-15T04:38:23.082Z,95986.59
2019-05-15T04:39:29.405Z,95983.24
2019-05-15T04:40:32.204Z,95990.45
2019-05-15T04:41:35.635Z,95983.50
2019-05-15T04:42:40.189Z,95984.04
2019-05-15T04:43:45.204Z,95984.87
2019-05-15T04:44:49.697Z,95985.41
2019-05-15T04:45:53.103Z,95986.27
2019-05-15T04:46:59.439Z,95987.10
2019-05-15T04:48:02.471Z,95987.52
2019-05-15T04:49:09.243Z,95982.48
2019-05-15T04:50:11.759Z,95984.27
2019-05-15T04:51:18.899Z,95986.81
2019-05-15T04:52:21.862Z,95988.09
2019-05-15T04:53:29.590Z,95985.66
2019-05-15T04:54:31.274Z,95991.09
2019-05-15T04:55:35.338Z,95984.91
2019-05-15T04:56:39.995Z,95988.19
2019-05-15T04:57:44.377Z,95990.89
2019-05-15T04:58:50.661Z,95985.16
2019-05-15T04:59:53.611Z,95986.69
2019-05-15T05:01:00.010Z,95980.83
2019-05-15T05:02:16.292Z,95985.38
2019-05-15T05:03:19.752Z,95982.35
2019-05-15T05:04:25.811Z,95984.91
2019-05-15T05:05:29.481Z,95985.66
2019-05-15T05:06:34.318Z,95993.83
2019-05-15T05:07:39.018Z,95994.05
2019-05-15T05:08:43.334Z,95991.18
2019-05-15T05:09:48.965Z,95989.59
2019-05-15T05:10:52.622Z,95992.02
2019-05-15T05:11:58.232Z,95990.06
2019-05-15T05:13:01.923Z,95983.59
2019-05-15T05:14:08.271Z,95987.64
2019-05-15T05:15:11.481Z,95987.30
2019-05-15T05:16:15.037Z,95995.70
2019-05-15T05:17:19.676Z,95991.44
2019-05-15T05:18:23.227Z,95988.56
2019-05-15T05:19:28.525Z,95993.41
2019-05-15T05:20:32.180Z,95989.23
2019-05-15T05:21:38.169Z,95992.81
2019-05-15T05:22:41.374Z,95987.33
2019-05-15T05:23:45.365Z,95988.98
2019-05-15T05:24:48.820Z,95990.48
2019-05-15T05:25:52.879Z,95982.20
2019-05-15T05:26:58.070Z,95984.74
2019-05-15T05:28:02.344Z,95990.64
2019-05-15T05:29:08.316Z,95985.16
2019-05-15T05:30:11.943Z,95988.59
2019-05-15T05:31:15.368Z,95987.70
2019-05-15T05:32:30.939Z,95987.70
2019-05-15T05:33:24.821Z,95986.14
2019-05-15T05:34:28.995Z,95984.01
2019-05-15T05:35:32.595Z,95979.55
2019-05-15T05:36:38.609Z,95986.08
2019-05-15T05:37:41.996Z,95981.65
2019-05-15T05:38:46.081Z,95987.39
2019-05-15T05:39:49.557Z,95980.73
2019-05-15T05:40:53.680Z,95981.08
2019-05-15T05:41:58.758Z,95976.52
2019-05-15T05:43:03.895Z,95980.02
2019-05-15T05:44:08.214Z,95981.14
2019-05-15T05:45:12.700Z,95973.70
2019-05-15T05:46:18.344Z,95973.70
2019-05-15T05:47:21.897Z,95980.91
2019-05-15T05:48:25.393Z,95977.22
2019-05-15T05:49:29.378Z,95981.65
2019-05-15T05:50:44.146Z,95978.43
2019-05-15T05:51:48.110Z,95983.50
2019-05-15T05:52:51.641Z,95976.64
2019-05-15T05:53:55.694Z,95977.83
2019-05-15T05:54:59.112Z,95973.58
2019-05-15T05:56:03.150Z,95975.91
2019-05-15T05:57:08.939Z,95981.48
2019-05-15T05:58:12.284Z,95981.48
2019-05-15T05:59:15.716Z,95980.31
2019-05-15T06:00:22.748Z,95978.05
2019-05-15T06:01:28.260Z,95976.67
2019-05-15T06:02:43.656Z,95975.72
2019-05-15T06:03:38.590Z,95980.18
2019-05-15T06:04:42.761Z,95974.73
2019-05-15T06:05:46.186Z,95979.28
2019-05-15T06:07:06.025Z,95975.58
2019-05-15T06:07:55.435Z,95982.73
2019-05-15T06:08:59.420Z,95984.99
2019-05-15T06:10:03.018Z,95988.05
2019-05-15T06:11:09.450Z,95986.91
2019-05-15T06:12:12.249Z,95983.05
2019-05-15T06:13:18.411Z,95985.89
2019-05-15T06:14:21.554Z,95987.13
2019-05-15T06:15:25.615Z,95987.35
2019-05-15T06:16:29.111Z,95987.04
2019-05-15T06:17:33.175Z,95991.59
2019-05-15T06:18:38.796Z,95989.66
2019-05-15T06:19:42.333Z,95989.30
2019-05-15T06:20:46.048Z,95990.70
2019-05-15T06:21:57.240Z,95988.85
2019-05-15T06:22:55.268Z,95993.75
2019-05-15T06:24:04.801Z,95989.77
2019-05-15T06:25:05.862Z,95995.53
2019-05-15T06:26:09.867Z,95989.70
2019-05-15T06:27:13.338Z,95992.16
2019-05-15T06:28:19.592Z,95996.62
2019-05-15T06:29:22.562Z,95991.69
2019-05-15T06:30:30.738Z,95991.87
2019-05-15T06:31:33.727Z,95993.59
2019-05-15T06:32:39.981Z,96000.01
2019-05-15T06:33:42.891Z,95997.05
2019-05-15T06:34:48.584Z,95997.67
2019-05-15T06:35:52.061Z,95993.19
2019-05-15T06:36:56.050Z,95993.19
2019-05-15T06:37:59.504Z,95992.80
2019-05-15T06:39:04.662Z,95995.73
2019-05-15T06:40:08.743Z,96000.07
2019-05-15T06:41:12.747Z,96003.12
2019-05-15T06:42:18.607Z,96004.63
2019-05-15T06:43:21.904Z,96005.39
2019-05-15T06:44:25.324Z,96002.36
2019-05-15T06:45:29.347Z,96005.25
2019-05-15T06:46:32.841Z,95997.53
2019-05-15T06:47:39.230Z,96000.84
2019-05-15T06:48:42.029Z,96001.66
2019-05-15T06:49:48.466Z,96001.66
2019-05-15T06:50:51.171Z,96005.87
2019-05-15T06:51:55.299Z,96001.40
2019-05-15T06:52:58.802Z,96000.22
2019-05-15T06:54:02.882Z,96002.22
2019-05-15T06:55:09.041Z,96000.84
2019-05-15T06:56:13.065Z,96001.53
2019-05-15T06:57:18.398Z,95996.39
2019-05-15T06:58:25.076Z,95996.39
2019-05-15T06:59:28.700Z,96003.54
2019-05-15T07:00:33.393Z,96004.56
2019-05-15T07:01:38.585Z,95999.06
2019-05-15T07:02:42.761Z,95999.06
2019-05-15T07:03:48.273Z,96004.91
2019-05-15T07:04:51.916Z,96004.91
2019-05-15T07:05:55.347Z,96002.58
2019-05-15T07:06:59.329Z,96002.58
2019-05-15T07:08:02.770Z,96005.13
2019-05-15T07:09:09.397Z,96000.78
2019-05-15T07:10:13.189Z,96004.64
2019-05-15T07:11:19.140Z,96005.14
2019-05-15T07:12:22.320Z,95998.05
2019-05-15T07:13:28.828Z,96004.52
2019-05-15T07:14:31.547Z,96004.52
2019-05-15T07:15:38.207Z,96000.67
2019-05-15T07:16:40.881Z,96005.27
2019-05-15T07:17:44.930Z,96012.08
2019-05-15T07:18:48.761Z,96014.22
2019-05-15T07:19:52.855Z,96005.67
2019-05-15T07:20:58.076Z,96005.67
2019-05-15T07:22:02.208Z,96006.98
2019-05-15T07:23:05.787Z,96006.98
2019-05-15T07:24:09.782Z,96014.28
2019-05-15T07:25:13.503Z,96010.50
2019-05-15T07:26:18.315Z,96007.46
2019-05-15T07:27:21.835Z,96007.46
2019-05-15T07:28:25.816Z,96006.64
2019-05-15T07:29:29.817Z,96008.14
2019-05-15T07:30:33.898Z,96014.69
2019-05-15T07:31:38.391Z,96015.54
2019-05-15T07:32:42.622Z,96015.54
2019-05-15T07:33:48.850Z,96010.36
2019-05-15T07:34:51.754Z,96011.25
2019-05-15T07:35:55.274Z,96018.16
2019-05-15T07:36:59.321Z,96012.79
2019-05-15T07:38:02.720Z,96014.23
2019-05-15T07:39:09.120Z,96012.23
2019-05-15T07:40:14.547Z,96012.23
2019-05-15T07:41:18.677Z,96015.05
2019-05-15T07:42:22.059Z,96010.92
2019-05-15T07:43:28.080Z,96015.39
2019-05-15T07:44:31.227Z,96015.39
2019-05-15T07:45:35.227Z,96011.61
2019-05-15T07:46:38.674Z,96005.95
2019-05-15T07:47:42.568Z,96005.95
2019-05-15T07:48:46.701Z,96011.32
2019-05-15T07:49:51.838Z,96014.00
2019-05-15T07:50:55.269Z,96017.18
2019-05-15T07:51:59.361Z,96017.18
2019-05-15T07:53:02.860Z,96011.73
2019-05-15T07:54:09.156Z,96009.81
2019-05-15T07:55:12.910Z,96007.87
2019-05-15T07:56:18.101Z,96009.54
2019-05-15T07:57:21.860Z,96011.12
2019-05-15T07:58:27.799Z,96008.92
2019-05-15T07:59:31.214Z,96008.23
2019-05-15T08:00:35.354Z,96010.99
2019-05-15T08:01:38.915Z,96002.09
2019-05-15T08:02:43.056Z,96002.86
2019-05-15T08:03:56.674Z,96017.95
2019-05-15T08:04:52.298Z,96022.34
2019-05-15T08:06:00.080Z,96022.34
2019-05-15T08:07:01.425Z,96024.36
2019-05-15T08:08:05.021Z,96015.33
2019-05-15T08:09:09.171Z,96016.20
2019-05-15T08:10:13.289Z,96016.20
2019-05-15T08:11:21.861Z,96011.78
2019-05-15T08:12:22.457Z,96011.78
2019-05-15T08:13:28.778Z,96012.08
2019-05-15T08:14:31.781Z,96016.61
2019-05-15T08:15:37.999Z,96003.06
2019-05-15T08:16:41.077Z,96014.00
2019-05-15T08:18:00.212Z,96016.61
2019-05-15T08:18:50.315Z,96012.22
2019-05-15T08:19:54.296Z,96009.71
2019-05-15T08:20:58.567Z,96007.36
2019-05-15T08:22:02.814Z,96004.19
2019-05-15T08:23:08.348Z,96003.21
2019-05-15T08:24:11.943Z,96003.21
2019-05-15T08:25:31.245Z,96010.38
2019-05-15T08:26:22.913Z,96013.14
2019-05-15T08:27:29.694Z,96004.34
2019-05-15T08:28:32.235Z,96004.34
2019-05-15T08:29:35.671Z,96012.27
2019-05-15T08:30:41.389Z,96012.27
2019-05-15T08:31:44.864Z,96013.83
2019-05-15T08:32:51.446Z,96013.09
2019-05-15T08:33:54.106Z,96020.86
2019-05-15T08:34:58.654Z,96014.27
2019-05-15T08:36:02.167Z,96017.43
2019-05-15T08:37:07.931Z,96019.78
2019-05-15T08:38:14.198Z,96022.31
2019-05-15T08:39:19.051Z,96017.02
2019-05-15T08:40:22.979Z,96020.19
2019-05-15T08:41:29.445Z,96020.19
2019-05-15T08:42:32.442Z,96005.86
2019-05-15T08:43:38.246Z,96008.48
2019-05-15T08:44:41.851Z,96013.01
2019-05-15T08:45:45.916Z,96002.94
2019-05-15T08:46:49.408Z,96016.52
2019-05-15T08:47:53.405Z,96016.70
2019-05-15T08:48:58.316Z,96014.38
2019-05-15T08:50:02.362Z,96003.28
2019-05-15T08:51:05.796Z,96004.45
2019-05-15T08:52:10.343Z,96003.41
2019-05-15T08:53:13.885Z,96006.24
2019-05-15T08:54:18.367Z,96008.09
2019-05-15T08:55:21.893Z,96005.84
2019-05-15T08:56:28.691Z,96007.14
2019-05-15T08:57:31.030Z,96006.57
2019-05-15T08:58:35.018Z,96012.39
2019-05-15T08:59:38.464Z,96010.91
2019-05-15T09:00:44.166Z,96010.91
2019-05-15T09:01:48.960Z,96008.28
2019-05-15T09:02:53.077Z,96006.71
2019-05-15T09:03:58.191Z,96009.33
2019-05-15T09:05:02.333Z,96008.28
2019-05-15T09:06:05.876Z,96003.72
2019-05-15T09:07:09.853Z,96003.72
2019-05-15T09:08:13.286Z,96003.25
2019-05-15T09:09:18.261Z,96010.39
2019-05-15T09:10:21.945Z,96012.91
2019-05-15T09:11:28.198Z,96010.55
2019-05-15T09:12:31.100Z,95999.63
2019-05-15T09:13:35.160Z,95998.69
2019-05-15T09:14:38.578Z,95997.57
2019-05-15T09:15:42.585Z,95995.47
2019-05-15T09:16:46.033Z,95990.50
2019-05-15T09:17:50.098Z,95993.92
2019-05-15T09:18:53.541Z,95993.09
2019-05-15T09:19:58.854Z,95993.09
2019-05-15T09:21:02.436Z,95992.48
2019-05-15T09:22:08.919Z,95996.92
2019-05-15T09:23:11.699Z,95989.67
2019-05-15T09:24:15.752Z,95994.70
2019-05-15T09:25:19.747Z,95989.67
2019-05-15T09:26:23.833Z,95989.20
2019-05-15T09:27:27.858Z,95987.59
2019-05-15T09:28:31.932Z,95984.61
2019-05-15T09:29:37.969Z,95985.02
2019-05-15T09:30:41.150Z,95982.65
2019-05-15T09:31:44.644Z,95981.59
2019-05-15T09:32:48.703Z,95981.58
2019-05-15T09:33:52.094Z,95984.81
2019-05-15T09:34:59.018Z,95984.45
2019-05-15T09:36:01.556Z,95983.20
2019-05-15T09:37:05.642Z,95987.62
2019-05-15T09:38:09.633Z,95983.87
2019-05-15T09:39:13.760Z,95986.92
2019-05-15T09:40:18.582Z,95989.25
2019-05-15T09:41:22.789Z,95981.45
2019-05-15T09:42:28.511Z,95984.03
2019-05-15T09:43:31.929Z,95979.85
2019-05-15T09:44:35.425Z,95981.05
2019-05-15T09:45:39.310Z,95977.45
2019-05-15T09:46:42.738Z,95975.50
2019-05-15T09:47:48.406Z,95980.89
2019-05-15T09:48:52.291Z,95980.03
2019-05-15T09:49:56.315Z,95978.38
2019-05-15T09:50:59.741Z,95976.86
2019-05-15T09:52:03.720Z,95973.99
2019-05-15T09:53:09.307Z,95970.58
2019-05-15T09:54:12.995Z,95975.46
2019-05-15T09:55:18.070Z,95966.91
2019-05-15T09:56:22.219Z,95972.68
2019-05-15T09:57:25.646Z,95960.55
2019-05-15T09:58:30.277Z,95966.20
2019-05-15T09:59:33.940Z,95964.73
2019-05-15T10:00:38.623Z,95965.12
2019-05-15T10:01:42.200Z,95961.11
2019-05-15T10:02:48.551Z,95963.39
2019-05-15T10:03:51.510Z,95964.52
2019-05-15T10:05:05.899Z,95959.50
2019-05-15T10:06:00.632Z,95962.34
2019-05-15T10:07:04.688Z,95958.24
2019-05-15T10:08:08.874Z,95966.54
2019-05-15T10:09:13.236Z,95959.05
2019-05-15T10:10:19.058Z,95961.50
2019-05-15T10:11:22.507Z,95961.99
2019-05-15T10:12:31.330Z,95949.02
2019-05-15T10:13:31.802Z,95950.34
2019-05-15T10:14:35.387Z,95949.22
2019-05-15T10:15:39.440Z,95951.09
2019-05-15T10:16:42.867Z,95948.16
2019-05-15T10:17:50.705Z,95953.63
2019-05-15T10:18:52.091Z,95948.38
2019-05-15T10:19:58.280Z,95949.69
2019-05-15T10:21:01.249Z,95948.05
2019-05-15T10:22:05.475Z,95945.20
2019-05-15T10:23:09.065Z,95941.39
2019-05-15T10:24:13.055Z,95939.27
2019-05-15T10:25:19.037Z,95939.84
2019-05-15T10:26:22.643Z,95942.70
2019-05-15T10:27:28.567Z,95938.83
2019-05-15T10:28:31.796Z,95943.09
2019-05-15T10:29:35.223Z,95936.91
2019-05-15T10:30:39.588Z,95939.17
2019-05-15T10:31:43.082Z,95939.52
2019-05-15T10:32:48.779Z,95935.76
2019-05-15T10:33:52.486Z,95926.31
2019-05-15T10:34:58.565Z,95937.70
2019-05-15T10:36:01.702Z,95934.22
2019-05-15T10:37:08.248Z,95932.53
2019-05-15T10:38:11.126Z,95929.97
2019-05-15T10:39:15.406Z,95932.48
2019-05-15T10:40:20.389Z,95928.39
2019-05-15T10:41:24.657Z,95932.67
2019-05-15T10:42:28.991Z,95927.61
2019-05-15T10:43:33.198Z,95929.77
2019-05-15T10:44:38.973Z,95938.12
2019-05-15T10:45:43.420Z,95930.45
2019-05-15T10:46:48.265Z,95928.05
2019-05-15T10:47:52.514Z,95927.16
2019-05-15T10:48:58.434Z,95925.45
2019-05-15T10:50:01.680Z,95924.70
2019-05-15T10:51:07.195Z,95921.96
2019-05-15T10:52:11.336Z,95920.65
2019-05-15T10:53:18.467Z,95912.97
2019-05-15T10:54:21.972Z,95918.45
2019-05-15T10:55:25.417Z,95917.41
2019-05-15T10:56:29.478Z,95917.06
2019-05-15T10:57:32.920Z,95916.14
2019-05-15T10:58:39.260Z,95920.52
2019-05-15T10:59:42.137Z,95911.34
2019-05-15T11:00:49.299Z,95916.22
2019-05-15T11:01:51.507Z,95914.74
2019-05-15T11:02:57.853Z,95908.36
2019-05-15T11:04:00.862Z,95915.05
2019-05-15T11:05:09.411Z,95914.48
2019-05-15T11:06:12.785Z,95916.44
2019-05-15T11:07:19.232Z,95914.95
2019-05-15T11:08:22.096Z,95911.41
2019-05-15T11:09:28.485Z,95918.79
2019-05-15T11:10:31.265Z,95914.69
2019-05-15T11:11:35.695Z,95911.55
2019-05-15T11:12:39.360Z,95905.70
2019-05-15T11:13:43.339Z,95906.28
2019-05-15T11:14:47.011Z,95905.52
2019-05-15T11:15:51.016Z,95906.03
2019-05-15T11:16:54.461Z,95903.89
2019-05-15T11:17:58.564Z,95897.70
2019-05-15T11:19:02.044Z,95898.59
2019-05-15T11:20:08.383Z,95902.75
2019-05-15T11:21:12.087Z,95898.48
2019-05-15T11:22:18.234Z,95899.45
2019-05-15T11:23:21.322Z,95898.66
2019-05-15T11:24:25.313Z,95899.56
2019-05-15T11:25:30.171Z,95904.24
2019-05-15T11:26:34.217Z,95902.17
2019-05-15T11:27:39.086Z,95888.13
2019-05-15T11:28:43.350Z,95894.16
2019-05-15T11:29:47.790Z,95886.98
2019-05-15T11:30:53.481Z,95891.11
2019-05-15T11:31:58.100Z,95896.23
2019-05-15T11:33:02.253Z,95900.08
2019-05-15T11:34:05.691Z,95897.80
2019-05-15T11:35:10.213Z,95897.55
2019-05-15T11:36:13.722Z,95895.44
2019-05-15T11:37:18.959Z,95886.20
2019-05-15T11:38:22.504Z,95882.25
2019-05-15T11:39:28.742Z,95886.45
2019-05-15T11:40:31.629Z,95881.89
2019-05-15T11:41:38.471Z,95880.55
2019-05-15T11:42:41.020Z,95886.02
2019-05-15T11:43:45.079Z,95883.19
2019-05-15T11:44:48.576Z,95889.31
2019-05-15T11:45:52.358Z,95885.92
2019-05-15T11:46:58.465Z,95884.94
2019-05-15T11:48:01.705Z,95878.33
2019-05-15T11:49:05.266Z,95881.12
2019-05-15T11:50:10.495Z,95883.21
2019-05-15T11:51:13.934Z,95884.39
2019-05-15T11:52:18.820Z,95891.18
2019-05-15T11:53:22.451Z,95887.63
2019-05-15T11:54:28.320Z,95890.45
2019-05-15T11:55:31.679Z,95892.92
2019-05-15T11:56:35.731Z,95892.54
2019-05-15T11:57:46.880Z,95888.00
2019-05-15T11:58:45.393Z,95880.62
2019-05-15T11:59:55.399Z,95885.33
2019-05-15T12:00:54.699Z,95881.97
2019-05-15T12:01:58.161Z,95884.60
2019-05-15T12:03:02.158Z,95883.28
2019-05-15T12:04:05.731Z,95882.69
2019-05-15T12:05:10.054Z,95877.39
2019-05-15T12:06:19.003Z,95884.91
2019-05-15T12:07:19.287Z,95881.51
2019-05-15T12:08:22.785Z,95877.59
2019-05-15T12:09:28.285Z,95886.42
2019-05-15T12:10:31.766Z,95886.98
2019-05-15T12:11:39.947Z,95881.55
2019-05-15T12:12:40.923Z,95884.13
2019-05-15T12:13:44.961Z,95881.50
2019-05-15T12:14:49.531Z,95888.26
2019-05-15T12:15:53.655Z,95890.55
2019-05-15T12:17:07.062Z,95884.73
2019-05-15T12:18:02.813Z,95885.24
2019-05-15T12:19:13.879Z,95892.19
2019-05-15T12:20:12.425Z,95890.50
2019-05-15T12:21:19.770Z,95890.67
2019-05-15T12:22:21.839Z,95890.29
2019-05-15T12:23:25.295Z,95882.05
2019-05-15T12:24:35.303Z,95882.55
2019-05-15T12:25:34.567Z,95885.75
2019-05-15T12:26:39.843Z,95883.72
2019-05-15T12:27:43.325Z,95892.53
2019-05-15T12:28:48.939Z,95887.48
2019-05-15T12:29:52.577Z,95887.86
2019-05-15T12:30:59.617Z,95883.70
2019-05-15T12:32:21.980Z,95888.03
2019-05-15T12:33:09.291Z,95895.20
2019-05-15T12:34:12.679Z,95896.14
2019-05-15T12:35:20.124Z,95892.36
2019-05-15T12:36:45.350Z,95896.86